Aérodrome :
LOGIN :

S'inscrire | Disclaimer

   EN    FR    IT 

 










Légende :    VFR   VFR Marginal   IFR   IFR Intensif   IFR Très Intensif
Visi : 
Plafond : 
>= 8 km
>= 3000ft
5 à 8 km
1000 à 3000 ft
1500m à 5 km
500 à 1000 ft
800 à 1500m
200 à 500 ft
< 800m
< 200 ft
Symboles :   Orages  Brouillard  Fortes neiges  Fortes précipitations  Vent > 20 kt
SIGMETs :   Divers  Orages  Givrage  Turbulence  Onde Orograph.  Cendres Volcan.







- Altitude de l'aérodrome : 70 ft
- Code IATA : WBG


ETNS - Schleswig

DERNIER METAR :
  • 211720Z AUTO 27008KT 2800 // ////// 07/06 Q1023 ///

METARs EXPIRÉS :
  • 211620Z AUTO 28010KT 4300 // ////// 07/06 Q1022 ///
  • 211601Z 28010KT 4000 BR BKN001 07/06 Q1022 RED FCST CANCEL
  • 211520Z 28012KT 3500 -RADZ BR BKN002 07/06 Q1022 AMB AMB BECMG RED

TAF TAF ETNS
Valide du 21 à 15h jusqu'au 22 à 00h UTC


211425Z 2115/2124 25012KT 2000 BR FEW001 BKN003
BECMG 2115/2117 27012KT 1000 -DZRA OVC001
BECMG 2122/2124 34010KT 3000 BR BKN004 BY ETGL
Pas de NOTAMs connus pour ce terrain.



MET'MAP, la Météo Aéronautique d'un coup d'oeil ! - Copyright ORBIFLY Décembre 2007 - Disclaimer

ORBIFLY MET'MAP TEAM :

Programmation & Développement : Alexandra Zaïnal
Conception & Développement : Baudouin d'Aumeries
Co-Programmation & Développement : Marc-Olivier Méhu
Soutien technique & logistique : Manuel Goepfert

Contact : metmap@orbifly.com




SOURCES & CREDITS :

   NOAA